sensor_id;sensor_type;location;lat;lon;timestamp;P1;durP1;ratioP1;P2;durP2;ratioP2
51566;SDS011;37657;53.182;5.638;2023-04-15T00:00:03;6.78;;;6.13;;
51566;SDS011;37657;53.182;5.638;2023-04-15T00:02:29;10.55;;;5.85;;
51566;SDS011;37657;53.182;5.638;2023-04-15T00:04:55;14.65;;;7.57;;
51566;SDS011;37657;53.182;5.638;2023-04-15T00:07:20;9.40;;;6.80;;
51566;SDS011;37657;53.182;5.638;2023-04-15T00:09:46;9.90;;;6.85;;
51566;SDS011;37657;53.182;5.638;2023-04-15T00:12:11;10.60;;;7.32;;
51566;SDS011;37657;53.182;5.638;2023-04-15T00:14:37;9.32;;;7.15;;
51566;SDS011;37657;53.182;5.638;2023-04-15T00:17:03;6.93;;;5.30;;
51566;SDS011;37657;53.182;5.638;2023-04-15T00:19:29;8.25;;;5.82;;
51566;SDS011;37657;53.182;5.638;2023-04-15T00:21:55;14.32;;;7.63;;
51566;SDS011;37657;53.182;5.638;2023-04-15T00:24:21;10.82;;;6.40;;
51566;SDS011;37657;53.182;5.638;2023-04-15T00:26:47;11.73;;;8.07;;
51566;SDS011;37657;53.182;5.638;2023-04-15T00:29:13;13.07;;;6.35;;
51566;SDS011;37657;53.182;5.638;2023-04-15T00:31:39;9.18;;;6.32;;
51566;SDS011;37657;53.182;5.638;2023-04-15T00:34:06;12.10;;;6.72;;
51566;SDS011;37657;53.182;5.638;2023-04-15T00:36:32;9.25;;;7.47;;
51566;SDS011;37657;53.182;5.638;2023-04-15T00:38:59;12.40;;;7.43;;
51566;SDS011;37657;53.182;5.638;2023-04-15T00:41:24;7.80;;;6.20;;
51566;SDS011;37657;53.182;5.638;2023-04-15T00:43:50;12.20;;;7.97;;
51566;SDS011;37657;53.182;5.638;2023-04-15T00:46:19;9.23;;;6.88;;
51566;SDS011;37657;53.182;5.638;2023-04-15T00:48:46;10.90;;;7.97;;
51566;SDS011;37657;53.182;5.638;2023-04-15T00:51:12;10.38;;;7.50;;
51566;SDS011;37657;53.182;5.638;2023-04-15T00:53:38;13.45;;;8.63;;
51566;SDS011;37657;53.182;5.638;2023-04-15T00:56:04;9.10;;;7.53;;
51566;SDS011;37657;53.182;5.638;2023-04-15T00:58:30;7.85;;;6.45;;
51566;SDS011;37657;53.182;5.638;2023-04-15T01:00:56;11.13;;;7.93;;
51566;SDS011;37657;53.182;5.638;2023-04-15T01:03:23;8.75;;;7.03;;
51566;SDS011;37657;53.182;5.638;2023-04-15T01:05:48;8.80;;;7.07;;
51566;SDS011;37657;53.182;5.638;2023-04-15T01:08:14;8.65;;;6.55;;
51566;SDS011;37657;53.182;5.638;2023-04-15T01:10:40;8.45;;;7.60;;
51566;SDS011;37657;53.182;5.638;2023-04-15T01:13:06;8.80;;;7.60;;
51566;SDS011;37657;53.182;5.638;2023-04-15T01:15:31;10.57;;;8.23;;
51566;SDS011;37657;53.182;5.638;2023-04-15T01:18:02;11.20;;;8.27;;
51566;SDS011;37657;53.182;5.638;2023-04-15T01:20:28;10.43;;;8.32;;
51566;SDS011;37657;53.182;5.638;2023-04-15T01:22:54;13.30;;;9.75;;
51566;SDS011;37657;53.182;5.638;2023-04-15T01:25:27;10.85;;;7.80;;
51566;SDS011;37657;53.182;5.638;2023-04-15T01:27:58;11.18;;;8.27;;
51566;SDS011;37657;53.182;5.638;2023-04-15T01:30:24;11.25;;;8.82;;
51566;SDS011;37657;53.182;5.638;2023-04-15T01:32:51;12.13;;;9.10;;
51566;SDS011;37657;53.182;5.638;2023-04-15T01:35:17;11.25;;;9.45;;
51566;SDS011;37657;53.182;5.638;2023-04-15T01:37:43;11.32;;;8.30;;
51566;SDS011;37657;53.182;5.638;2023-04-15T01:40:10;15.77;;;10.10;;
51566;SDS011;37657;53.182;5.638;2023-04-15T01:42:36;12.68;;;9.57;;
51566;SDS011;37657;53.182;5.638;2023-04-15T01:45:02;13.07;;;10.15;;
51566;SDS011;37657;53.182;5.638;2023-04-15T01:47:28;16.80;;;11.20;;
51566;SDS011;37657;53.182;5.638;2023-04-15T01:49:53;17.38;;;10.82;;
51566;SDS011;37657;53.182;5.638;2023-04-15T01:52:26;14.20;;;9.52;;
51566;SDS011;37657;53.182;5.638;2023-04-15T01:54:51;16.27;;;9.43;;
51566;SDS011;37657;53.182;5.638;2023-04-15T01:57:17;13.05;;;10.77;;
51566;SDS011;37657;53.182;5.638;2023-04-15T01:59:48;10.60;;;9.50;;
51566;SDS011;37657;53.182;5.638;2023-04-15T02:02:13;11.05;;;9.95;;
51566;SDS011;37657;53.182;5.638;2023-04-15T02:04:39;12.02;;;10.75;;
51566;SDS011;37657;53.182;5.638;2023-04-15T02:07:05;16.77;;;11.20;;
51566;SDS011;37657;53.182;5.638;2023-04-15T02:09:31;15.77;;;11.27;;
51566;SDS011;37657;53.182;5.638;2023-04-15T02:11:56;13.98;;;11.27;;
51566;SDS011;37657;53.182;5.638;2023-04-15T02:14:22;13.48;;;11.20;;
51566;SDS011;37657;53.182;5.638;2023-04-15T02:16:47;15.35;;;10.95;;
51566;SDS011;37657;53.182;5.638;2023-04-15T02:19:13;11.85;;;10.65;;
51566;SDS011;37657;53.182;5.638;2023-04-15T02:21:39;16.15;;;11.45;;
51566;SDS011;37657;53.182;5.638;2023-04-15T02:24:05;22.67;;;13.93;;
51566;SDS011;37657;53.182;5.638;2023-04-15T02:26:31;12.60;;;11.38;;
51566;SDS011;37657;53.182;5.638;2023-04-15T02:28:57;14.35;;;12.82;;
51566;SDS011;37657;53.182;5.638;2023-04-15T02:31:23;16.23;;;12.65;;
51566;SDS011;37657;53.182;5.638;2023-04-15T02:33:49;13.25;;;11.88;;
51566;SDS011;37657;53.182;5.638;2023-04-15T02:36:15;14.10;;;12.20;;
51566;SDS011;37657;53.182;5.638;2023-04-15T02:38:41;13.98;;;12.10;;
51566;SDS011;37657;53.182;5.638;2023-04-15T02:41:08;13.98;;;12.25;;
51566;SDS011;37657;53.182;5.638;2023-04-15T02:43:34;21.33;;;15.05;;
51566;SDS011;37657;53.182;5.638;2023-04-15T02:46:00;15.00;;;12.13;;
51566;SDS011;37657;53.182;5.638;2023-04-15T02:48:25;17.70;;;14.88;;
51566;SDS011;37657;53.182;5.638;2023-04-15T02:50:51;14.02;;;12.63;;
51566;SDS011;37657;53.182;5.638;2023-04-15T02:53:17;16.48;;;12.98;;
51566;SDS011;37657;53.182;5.638;2023-04-15T02:55:43;14.13;;;12.55;;
51566;SDS011;37657;53.182;5.638;2023-04-15T02:58:09;18.55;;;14.27;;
51566;SDS011;37657;53.182;5.638;2023-04-15T03:00:35;18.42;;;13.57;;
51566;SDS011;37657;53.182;5.638;2023-04-15T03:03:04;16.23;;;14.27;;
51566;SDS011;37657;53.182;5.638;2023-04-15T03:05:30;15.68;;;14.07;;
51566;SDS011;37657;53.182;5.638;2023-04-15T03:07:55;14.40;;;12.70;;
51566;SDS011;37657;53.182;5.638;2023-04-15T03:10:21;15.55;;;12.80;;
51566;SDS011;37657;53.182;5.638;2023-04-15T03:12:47;14.45;;;12.98;;
51566;SDS011;37657;53.182;5.638;2023-04-15T03:15:13;13.80;;;12.43;;
51566;SDS011;37657;53.182;5.638;2023-04-15T03:17:38;21.55;;;16.25;;
51566;SDS011;37657;53.182;5.638;2023-04-15T03:20:04;14.25;;;12.88;;
51566;SDS011;37657;53.182;5.638;2023-04-15T03:22:31;18.17;;;13.68;;
51566;SDS011;37657;53.182;5.638;2023-04-15T03:24:57;25.08;;;14.68;;
51566;SDS011;37657;53.182;5.638;2023-04-15T03:27:23;15.35;;;13.80;;
51566;SDS011;37657;53.182;5.638;2023-04-15T03:29:49;19.70;;;13.80;;
51566;SDS011;37657;53.182;5.638;2023-04-15T03:32:14;17.58;;;15.70;;
51566;SDS011;37657;53.182;5.638;2023-04-15T03:34:40;15.13;;;13.52;;
51566;SDS011;37657;53.182;5.638;2023-04-15T03:37:06;14.10;;;12.63;;
51566;SDS011;37657;53.182;5.638;2023-04-15T03:39:32;30.58;;;17.13;;
51566;SDS011;37657;53.182;5.638;2023-04-15T03:41:58;16.27;;;14.73;;
51566;SDS011;37657;53.182;5.638;2023-04-15T03:44:27;14.68;;;13.02;;
51566;SDS011;37657;53.182;5.638;2023-04-15T03:46:53;24.33;;;15.77;;
51566;SDS011;37657;53.182;5.638;2023-04-15T03:49:18;15.13;;;13.27;;
51566;SDS011;37657;53.182;5.638;2023-04-15T03:51:44;15.43;;;13.95;;
51566;SDS011;37657;53.182;5.638;2023-04-15T03:54:10;18.38;;;14.75;;
51566;SDS011;37657;53.182;5.638;2023-04-15T03:56:38;16.20;;;13.57;;
51566;SDS011;37657;53.182;5.638;2023-04-15T03:59:04;17.88;;;15.90;;
51566;SDS011;37657;53.182;5.638;2023-04-15T04:01:29;17.25;;;13.27;;
51566;SDS011;37657;53.182;5.638;2023-04-15T04:03:55;20.38;;;14.70;;
51566;SDS011;37657;53.182;5.638;2023-04-15T04:06:21;21.10;;;16.25;;
51566;SDS011;37657;53.182;5.638;2023-04-15T04:08:46;22.08;;;14.30;;
51566;SDS011;37657;53.182;5.638;2023-04-15T04:11:12;15.77;;;14.18;;
51566;SDS011;37657;53.182;5.638;2023-04-15T04:13:37;15.38;;;13.77;;
51566;SDS011;37657;53.182;5.638;2023-04-15T04:16:03;16.65;;;14.23;;
51566;SDS011;37657;53.182;5.638;2023-04-15T04:18:30;17.73;;;16.08;;
51566;SDS011;37657;53.182;5.638;2023-04-15T04:20:56;24.98;;;15.90;;
51566;SDS011;37657;53.182;5.638;2023-04-15T04:23:21;18.88;;;16.08;;
51566;SDS011;37657;53.182;5.638;2023-04-15T04:25:47;23.60;;;14.57;;
51566;SDS011;37657;53.182;5.638;2023-04-15T04:28:13;18.08;;;15.55;;
51566;SDS011;37657;53.182;5.638;2023-04-15T04:30:38;21.08;;;14.43;;
51566;SDS011;37657;53.182;5.638;2023-04-15T04:33:04;23.10;;;15.75;;
51566;SDS011;37657;53.182;5.638;2023-04-15T04:35:31;16.60;;;15.05;;
51566;SDS011;37657;53.182;5.638;2023-04-15T04:37:58;15.30;;;13.68;;
51566;SDS011;37657;53.182;5.638;2023-04-15T04:40:25;16.90;;;14.23;;
51566;SDS011;37657;53.182;5.638;2023-04-15T04:42:51;16.27;;;12.85;;
51566;SDS011;37657;53.182;5.638;2023-04-15T04:45:18;16.52;;;14.38;;
51566;SDS011;37657;53.182;5.638;2023-04-15T04:47:44;14.48;;;13.15;;
51566;SDS011;37657;53.182;5.638;2023-04-15T04:50:11;18.95;;;15.18;;
51566;SDS011;37657;53.182;5.638;2023-04-15T04:52:37;23.00;;;17.90;;
51566;SDS011;37657;53.182;5.638;2023-04-15T04:55:03;22.73;;;15.65;;
51566;SDS011;37657;53.182;5.638;2023-04-15T04:57:29;15.65;;;13.88;;
51566;SDS011;37657;53.182;5.638;2023-04-15T04:59:55;15.95;;;14.50;;
51566;SDS011;37657;53.182;5.638;2023-04-15T05:02:20;18.13;;;15.43;;
51566;SDS011;37657;53.182;5.638;2023-04-15T05:04:46;15.93;;;14.07;;
51566;SDS011;37657;53.182;5.638;2023-04-15T05:07:12;19.98;;;16.48;;
51566;SDS011;37657;53.182;5.638;2023-04-15T05:09:37;22.35;;;17.35;;
51566;SDS011;37657;53.182;5.638;2023-04-15T05:12:03;21.73;;;16.17;;
51566;SDS011;37657;53.182;5.638;2023-04-15T05:14:29;16.23;;;14.52;;
51566;SDS011;37657;53.182;5.638;2023-04-15T05:16:55;16.98;;;14.52;;
51566;SDS011;37657;53.182;5.638;2023-04-15T05:19:20;18.38;;;16.48;;
51566;SDS011;37657;53.182;5.638;2023-04-15T05:21:46;16.58;;;14.88;;
51566;SDS011;37657;53.182;5.638;2023-04-15T05:24:11;17.50;;;15.40;;
51566;SDS011;37657;53.182;5.638;2023-04-15T05:26:37;18.38;;;16.50;;
51566;SDS011;37657;53.182;5.638;2023-04-15T05:29:03;15.95;;;14.35;;
51566;SDS011;37657;53.182;5.638;2023-04-15T05:31:28;22.88;;;16.05;;
51566;SDS011;37657;53.182;5.638;2023-04-15T05:33:54;23.67;;;15.93;;
51566;SDS011;37657;53.182;5.638;2023-04-15T05:36:19;22.35;;;16.98;;
51566;SDS011;37657;53.182;5.638;2023-04-15T05:38:45;17.63;;;15.52;;
51566;SDS011;37657;53.182;5.638;2023-04-15T05:41:10;22.25;;;17.20;;
51566;SDS011;37657;53.182;5.638;2023-04-15T05:43:36;17.50;;;15.60;;
51566;SDS011;37657;53.182;5.638;2023-04-15T05:46:01;17.08;;;15.30;;
51566;SDS011;37657;53.182;5.638;2023-04-15T05:48:27;18.60;;;15.23;;
51566;SDS011;37657;53.182;5.638;2023-04-15T05:50:52;17.65;;;14.75;;
51566;SDS011;37657;53.182;5.638;2023-04-15T05:53:18;17.15;;;15.30;;
51566;SDS011;37657;53.182;5.638;2023-04-15T05:55:44;36.28;;;16.13;;
51566;SDS011;37657;53.182;5.638;2023-04-15T05:58:10;14.30;;;13.10;;
51566;SDS011;37657;53.182;5.638;2023-04-15T06:00:36;17.00;;;14.25;;
51566;SDS011;37657;53.182;5.638;2023-04-15T06:03:02;16.50;;;14.80;;
51566;SDS011;37657;53.182;5.638;2023-04-15T06:05:28;14.63;;;12.43;;
51566;SDS011;37657;53.182;5.638;2023-04-15T06:07:53;16.08;;;13.90;;
51566;SDS011;37657;53.182;5.638;2023-04-15T06:10:19;16.52;;;12.93;;
51566;SDS011;37657;53.182;5.638;2023-04-15T06:12:45;14.55;;;13.10;;
51566;SDS011;37657;53.182;5.638;2023-04-15T06:15:10;13.07;;;10.85;;
51566;SDS011;37657;53.182;5.638;2023-04-15T06:17:36;14.75;;;11.30;;
51566;SDS011;37657;53.182;5.638;2023-04-15T06:20:02;11.57;;;9.32;;
51566;SDS011;37657;53.182;5.638;2023-04-15T06:22:28;13.77;;;11.35;;
51566;SDS011;37657;53.182;5.638;2023-04-15T06:24:54;17.42;;;11.00;;
51566;SDS011;37657;53.182;5.638;2023-04-15T06:27:19;11.55;;;10.27;;
51566;SDS011;37657;53.182;5.638;2023-04-15T06:29:45;10.07;;;8.98;;
51566;SDS011;37657;53.182;5.638;2023-04-15T06:32:11;11.10;;;9.70;;
51566;SDS011;37657;53.182;5.638;2023-04-15T06:34:37;10.88;;;7.78;;
51566;SDS011;37657;53.182;5.638;2023-04-15T06:37:02;15.73;;;10.10;;
51566;SDS011;37657;53.182;5.638;2023-04-15T06:39:28;14.50;;;10.68;;
51566;SDS011;37657;53.182;5.638;2023-04-15T06:41:53;10.35;;;9.25;;
51566;SDS011;37657;53.182;5.638;2023-04-15T06:44:20;10.68;;;9.65;;
51566;SDS011;37657;53.182;5.638;2023-04-15T06:46:46;14.50;;;11.98;;
51566;SDS011;37657;53.182;5.638;2023-04-15T06:49:11;11.18;;;10.00;;
51566;SDS011;37657;53.182;5.638;2023-04-15T06:51:37;11.95;;;10.38;;
51566;SDS011;37657;53.182;5.638;2023-04-15T06:54:03;13.65;;;10.40;;
51566;SDS011;37657;53.182;5.638;2023-04-15T06:56:30;16.02;;;10.70;;
51566;SDS011;37657;53.182;5.638;2023-04-15T06:58:56;14.57;;;11.82;;
51566;SDS011;37657;53.182;5.638;2023-04-15T07:01:22;12.18;;;10.25;;
51566;SDS011;37657;53.182;5.638;2023-04-15T07:03:47;13.73;;;12.10;;
51566;SDS011;37657;53.182;5.638;2023-04-15T07:06:13;13.82;;;12.43;;
51566;SDS011;37657;53.182;5.638;2023-04-15T07:08:38;16.77;;;13.35;;
51566;SDS011;37657;53.182;5.638;2023-04-15T07:11:04;14.88;;;13.02;;
51566;SDS011;37657;53.182;5.638;2023-04-15T07:13:30;20.90;;;13.27;;
51566;SDS011;37657;53.182;5.638;2023-04-15T07:15:56;14.15;;;12.55;;
51566;SDS011;37657;53.182;5.638;2023-04-15T07:18:22;13.88;;;12.45;;
51566;SDS011;37657;53.182;5.638;2023-04-15T07:20:47;14.95;;;12.77;;
51566;SDS011;37657;53.182;5.638;2023-04-15T07:23:13;15.80;;;13.88;;
51566;SDS011;37657;53.182;5.638;2023-04-15T07:25:39;20.20;;;13.35;;
51566;SDS011;37657;53.182;5.638;2023-04-15T07:28:04;17.20;;;15.48;;
51566;SDS011;37657;53.182;5.638;2023-04-15T07:30:30;16.38;;;13.63;;
51566;SDS011;37657;53.182;5.638;2023-04-15T07:32:56;19.35;;;14.20;;
51566;SDS011;37657;53.182;5.638;2023-04-15T07:35:22;18.35;;;16.17;;
51566;SDS011;37657;53.182;5.638;2023-04-15T07:37:49;18.63;;;15.95;;
51566;SDS011;37657;53.182;5.638;2023-04-15T07:40:15;14.35;;;12.55;;
51566;SDS011;37657;53.182;5.638;2023-04-15T07:42:40;14.57;;;12.90;;
51566;SDS011;37657;53.182;5.638;2023-04-15T07:45:06;15.52;;;11.95;;
51566;SDS011;37657;53.182;5.638;2023-04-15T07:47:33;15.23;;;11.82;;
51566;SDS011;37657;53.182;5.638;2023-04-15T07:49:58;18.15;;;12.57;;
51566;SDS011;37657;53.182;5.638;2023-04-15T07:52:24;14.43;;;10.27;;
51566;SDS011;37657;53.182;5.638;2023-04-15T07:54:50;13.98;;;9.73;;
51566;SDS011;37657;53.182;5.638;2023-04-15T07:57:15;11.65;;;9.45;;
51566;SDS011;37657;53.182;5.638;2023-04-15T07:59:41;13.05;;;10.00;;
51566;SDS011;37657;53.182;5.638;2023-04-15T08:02:07;13.50;;;8.95;;
51566;SDS011;37657;53.182;5.638;2023-04-15T08:04:33;11.90;;;9.15;;
51566;SDS011;37657;53.182;5.638;2023-04-15T08:06:59;10.05;;;8.23;;
51566;SDS011;37657;53.182;5.638;2023-04-15T08:09:24;9.10;;;6.97;;
51566;SDS011;37657;53.182;5.638;2023-04-15T08:11:51;10.30;;;6.88;;
51566;SDS011;37657;53.182;5.638;2023-04-15T08:14:17;11.50;;;8.75;;
51566;SDS011;37657;53.182;5.638;2023-04-15T08:16:42;9.25;;;6.78;;
51566;SDS011;37657;53.182;5.638;2023-04-15T08:19:08;10.07;;;6.57;;
51566;SDS011;37657;53.182;5.638;2023-04-15T08:21:33;11.10;;;5.90;;
51566;SDS011;37657;53.182;5.638;2023-04-15T08:24:00;11.73;;;6.15;;
51566;SDS011;37657;53.182;5.638;2023-04-15T08:26:26;7.10;;;4.97;;
51566;SDS011;37657;53.182;5.638;2023-04-15T08:28:51;8.45;;;5.70;;
51566;SDS011;37657;53.182;5.638;2023-04-15T08:31:17;7.07;;;5.32;;
51566;SDS011;37657;53.182;5.638;2023-04-15T08:33:43;9.10;;;5.65;;
51566;SDS011;37657;53.182;5.638;2023-04-15T08:36:10;8.05;;;7.22;;
51566;SDS011;37657;53.182;5.638;2023-04-15T08:38:36;6.57;;;4.65;;
51566;SDS011;37657;53.182;5.638;2023-04-15T08:41:03;8.98;;;5.53;;
51566;SDS011;37657;53.182;5.638;2023-04-15T08:43:34;7.90;;;5.63;;
51566;SDS011;37657;53.182;5.638;2023-04-15T08:46:09;8.65;;;5.35;;
51566;SDS011;37657;53.182;5.638;2023-04-15T08:48:36;6.55;;;5.22;;
51566;SDS011;37657;53.182;5.638;2023-04-15T08:51:04;11.93;;;4.57;;
51566;SDS011;37657;53.182;5.638;2023-04-15T08:53:31;6.85;;;4.05;;
51566;SDS011;37657;53.182;5.638;2023-04-15T08:55:57;8.13;;;5.03;;
51566;SDS011;37657;53.182;5.638;2023-04-15T08:58:26;9.55;;;6.68;;
51566;SDS011;37657;53.182;5.638;2023-04-15T09:00:52;8.07;;;5.18;;
51566;SDS011;37657;53.182;5.638;2023-04-15T09:03:18;7.95;;;5.95;;
51566;SDS011;37657;53.182;5.638;2023-04-15T09:05:45;7.57;;;6.55;;
51566;SDS011;37657;53.182;5.638;2023-04-15T09:08:12;10.98;;;4.75;;
51566;SDS011;37657;53.182;5.638;2023-04-15T09:10:37;9.82;;;6.28;;
51566;SDS011;37657;53.182;5.638;2023-04-15T09:13:03;8.65;;;5.50;;
51566;SDS011;37657;53.182;5.638;2023-04-15T09:15:28;12.32;;;6.18;;
51566;SDS011;37657;53.182;5.638;2023-04-15T09:17:56;8.32;;;5.63;;
51566;SDS011;37657;53.182;5.638;2023-04-15T09:20:22;10.55;;;7.13;;
51566;SDS011;37657;53.182;5.638;2023-04-15T09:22:48;9.40;;;5.40;;
51566;SDS011;37657;53.182;5.638;2023-04-15T09:27:50;9.18;;;6.53;;
51566;SDS011;37657;53.182;5.638;2023-04-15T09:30:28;7.65;;;6.57;;
51566;SDS011;37657;53.182;5.638;2023-04-15T09:32:55;6.57;;;5.13;;
51566;SDS011;37657;53.182;5.638;2023-04-15T09:35:26;8.77;;;5.63;;
51566;SDS011;37657;53.182;5.638;2023-04-15T09:37:52;7.97;;;5.38;;
51566;SDS011;37657;53.182;5.638;2023-04-15T09:40:36;8.73;;;5.68;;
51566;SDS011;37657;53.182;5.638;2023-04-15T09:43:04;7.93;;;6.03;;
51566;SDS011;37657;53.182;5.638;2023-04-15T09:45:31;8.10;;;5.97;;
51566;SDS011;37657;53.182;5.638;2023-04-15T09:47:58;6.65;;;4.60;;
51566;SDS011;37657;53.182;5.638;2023-04-15T09:50:39;8.73;;;5.78;;
51566;SDS011;37657;53.182;5.638;2023-04-15T09:53:09;11.90;;;5.97;;
51566;SDS011;37657;53.182;5.638;2023-04-15T09:55:35;8.82;;;5.50;;
51566;SDS011;37657;53.182;5.638;2023-04-15T09:58:01;7.60;;;4.85;;
51566;SDS011;37657;53.182;5.638;2023-04-15T10:00:32;8.55;;;6.35;;
51566;SDS011;37657;53.182;5.638;2023-04-15T10:02:58;6.07;;;4.72;;
51566;SDS011;37657;53.182;5.638;2023-04-15T10:05:24;7.25;;;4.90;;
51566;SDS011;37657;53.182;5.638;2023-04-15T10:07:49;6.53;;;4.30;;
51566;SDS011;37657;53.182;5.638;2023-04-15T10:10:15;10.77;;;5.40;;
51566;SDS011;37657;53.182;5.638;2023-04-15T10:12:42;5.20;;;3.63;;
51566;SDS011;37657;53.182;5.638;2023-04-15T10:15:12;8.10;;;4.40;;
51566;SDS011;37657;53.182;5.638;2023-04-15T10:17:40;6.95;;;3.88;;
51566;SDS011;37657;53.182;5.638;2023-04-15T10:20:08;6.57;;;3.80;;
51566;SDS011;37657;53.182;5.638;2023-04-15T10:22:36;7.00;;;3.53;;
51566;SDS011;37657;53.182;5.638;2023-04-15T10:25:02;6.43;;;3.20;;
51566;SDS011;37657;53.182;5.638;2023-04-15T10:27:29;3.90;;;2.53;;
51566;SDS011;37657;53.182;5.638;2023-04-15T10:29:55;4.47;;;3.00;;
51566;SDS011;37657;53.182;5.638;2023-04-15T10:32:21;4.78;;;3.22;;
51566;SDS011;37657;53.182;5.638;2023-04-15T10:34:49;5.80;;;3.45;;
51566;SDS011;37657;53.182;5.638;2023-04-15T10:37:32;8.60;;;3.40;;
51566;SDS011;37657;53.182;5.638;2023-04-15T10:40:00;5.22;;;2.40;;
51566;SDS011;37657;53.182;5.638;2023-04-15T10:42:32;5.05;;;3.50;;
51566;SDS011;37657;53.182;5.638;2023-04-15T10:44:58;6.10;;;2.80;;
51566;SDS011;37657;53.182;5.638;2023-04-15T10:47:24;4.57;;;3.38;;
51566;SDS011;37657;53.182;5.638;2023-04-15T10:50:00;5.05;;;2.80;;
51566;SDS011;37657;53.182;5.638;2023-04-15T10:52:26;6.13;;;3.42;;
51566;SDS011;37657;53.182;5.638;2023-04-15T10:57:40;7.40;;;4.03;;
51566;SDS011;37657;53.182;5.638;2023-04-15T11:00:10;5.90;;;3.17;;
51566;SDS011;37657;53.182;5.638;2023-04-15T11:02:38;3.17;;;2.50;;
51566;SDS011;37657;53.182;5.638;2023-04-15T11:05:16;8.25;;;3.15;;
51566;SDS011;37657;53.182;5.638;2023-04-15T11:12:50;18.70;;;3.35;;
51566;SDS011;37657;53.182;5.638;2023-04-15T11:15:31;4.07;;;3.30;;
51566;SDS011;37657;53.182;5.638;2023-04-15T11:20:34;4.88;;;3.17;;
51566;SDS011;37657;53.182;5.638;2023-04-15T11:23:00;6.72;;;2.67;;
51566;SDS011;37657;53.182;5.638;2023-04-15T11:25:27;3.78;;;2.42;;
51566;SDS011;37657;53.182;5.638;2023-04-15T11:27:54;7.70;;;3.78;;
51566;SDS011;37657;53.182;5.638;2023-04-15T11:30:24;4.75;;;2.85;;
51566;SDS011;37657;53.182;5.638;2023-04-15T11:32:51;5.75;;;2.88;;
51566;SDS011;37657;53.182;5.638;2023-04-15T11:35:18;4.63;;;3.30;;
51566;SDS011;37657;53.182;5.638;2023-04-15T11:37:44;6.75;;;4.00;;
51566;SDS011;37657;53.182;5.638;2023-04-15T11:40:11;11.68;;;3.97;;
51566;SDS011;37657;53.182;5.638;2023-04-15T11:42:37;7.72;;;4.30;;
51566;SDS011;37657;53.182;5.638;2023-04-15T11:45:10;7.30;;;3.95;;
51566;SDS011;37657;53.182;5.638;2023-04-15T11:47:37;4.70;;;2.20;;
51566;SDS011;37657;53.182;5.638;2023-04-15T11:50:13;4.20;;;2.85;;
51566;SDS011;37657;53.182;5.638;2023-04-15T11:52:41;6.68;;;2.83;;
51566;SDS011;37657;53.182;5.638;2023-04-15T11:55:17;8.05;;;4.13;;
51566;SDS011;37657;53.182;5.638;2023-04-15T11:57:42;4.85;;;3.33;;
51566;SDS011;37657;53.182;5.638;2023-04-15T12:00:08;5.78;;;3.50;;
51566;SDS011;37657;53.182;5.638;2023-04-15T12:02:38;14.13;;;3.58;;
51566;SDS011;37657;53.182;5.638;2023-04-15T12:05:04;5.53;;;3.75;;
51566;SDS011;37657;53.182;5.638;2023-04-15T12:07:30;4.32;;;3.15;;
51566;SDS011;37657;53.182;5.638;2023-04-15T12:09:57;3.50;;;2.80;;
51566;SDS011;37657;53.182;5.638;2023-04-15T12:12:26;8.02;;;3.50;;
51566;SDS011;37657;53.182;5.638;2023-04-15T12:14:52;4.25;;;2.10;;
51566;SDS011;37657;53.182;5.638;2023-04-15T12:17:20;4.93;;;2.90;;
51566;SDS011;37657;53.182;5.638;2023-04-15T12:19:47;7.05;;;2.88;;
51566;SDS011;37657;53.182;5.638;2023-04-15T12:22:14;4.78;;;2.65;;
51566;SDS011;37657;53.182;5.638;2023-04-15T12:24:42;5.35;;;2.47;;
51566;SDS011;37657;53.182;5.638;2023-04-15T12:27:12;7.35;;;3.17;;
51566;SDS011;37657;53.182;5.638;2023-04-15T12:29:39;6.25;;;3.28;;
51566;SDS011;37657;53.182;5.638;2023-04-15T12:32:06;8.70;;;3.63;;
51566;SDS011;37657;53.182;5.638;2023-04-15T12:34:57;7.32;;;3.95;;
51566;SDS011;37657;53.182;5.638;2023-04-15T12:37:22;5.97;;;3.75;;
51566;SDS011;37657;53.182;5.638;2023-04-15T12:39:48;10.90;;;2.92;;
51566;SDS011;37657;53.182;5.638;2023-04-15T12:42:15;5.40;;;2.60;;
51566;SDS011;37657;53.182;5.638;2023-04-15T12:44:41;5.22;;;2.63;;
51566;SDS011;37657;53.182;5.638;2023-04-15T12:47:07;7.35;;;4.47;;
51566;SDS011;37657;53.182;5.638;2023-04-15T12:49:34;5.10;;;2.88;;
51566;SDS011;37657;53.182;5.638;2023-04-15T12:52:00;9.02;;;4.68;;
51566;SDS011;37657;53.182;5.638;2023-04-15T12:54:27;7.30;;;4.38;;
51566;SDS011;37657;53.182;5.638;2023-04-15T12:56:53;6.75;;;3.00;;
51566;SDS011;37657;53.182;5.638;2023-04-15T12:59:19;9.40;;;3.28;;
51566;SDS011;37657;53.182;5.638;2023-04-15T13:01:46;9.20;;;3.50;;
51566;SDS011;37657;53.182;5.638;2023-04-15T13:04:12;13.85;;;3.67;;
51566;SDS011;37657;53.182;5.638;2023-04-15T13:06:39;6.40;;;2.65;;
51566;SDS011;37657;53.182;5.638;2023-04-15T13:09:05;8.00;;;3.20;;
51566;SDS011;37657;53.182;5.638;2023-04-15T13:11:30;9.30;;;2.63;;
51566;SDS011;37657;53.182;5.638;2023-04-15T13:13:58;7.28;;;3.17;;
51566;SDS011;37657;53.182;5.638;2023-04-15T13:16:27;14.43;;;3.42;;
51566;SDS011;37657;53.182;5.638;2023-04-15T13:18:53;4.75;;;2.67;;
51566;SDS011;37657;53.182;5.638;2023-04-15T13:21:19;8.07;;;2.63;;
51566;SDS011;37657;53.182;5.638;2023-04-15T13:23:45;6.28;;;4.10;;
51566;SDS011;37657;53.182;5.638;2023-04-15T13:26:11;7.50;;;3.70;;
51566;SDS011;37657;53.182;5.638;2023-04-15T13:28:36;10.98;;;3.60;;
51566;SDS011;37657;53.182;5.638;2023-04-15T13:31:02;8.60;;;3.00;;
51566;SDS011;37657;53.182;5.638;2023-04-15T13:33:28;8.40;;;3.53;;
51566;SDS011;37657;53.182;5.638;2023-04-15T13:35:54;9.75;;;4.03;;
51566;SDS011;37657;53.182;5.638;2023-04-15T13:38:20;6.65;;;2.65;;
51566;SDS011;37657;53.182;5.638;2023-04-15T13:40:45;13.68;;;3.35;;
51566;SDS011;37657;53.182;5.638;2023-04-15T13:43:11;16.25;;;5.07;;
51566;SDS011;37657;53.182;5.638;2023-04-15T13:45:37;16.45;;;3.17;;
51566;SDS011;37657;53.182;5.638;2023-04-15T13:48:03;7.10;;;3.40;;
51566;SDS011;37657;53.182;5.638;2023-04-15T13:50:28;9.75;;;4.53;;
51566;SDS011;37657;53.182;5.638;2023-04-15T13:52:54;9.82;;;3.00;;
51566;SDS011;37657;53.182;5.638;2023-04-15T13:55:19;4.28;;;2.75;;
51566;SDS011;37657;53.182;5.638;2023-04-15T13:57:45;6.15;;;3.05;;
51566;SDS011;37657;53.182;5.638;2023-04-15T14:00:11;5.53;;;3.10;;
51566;SDS011;37657;53.182;5.638;2023-04-15T14:02:38;9.75;;;3.15;;
51566;SDS011;37657;53.182;5.638;2023-04-15T14:05:05;8.13;;;2.78;;
51566;SDS011;37657;53.182;5.638;2023-04-15T14:07:31;7.28;;;2.42;;
51566;SDS011;37657;53.182;5.638;2023-04-15T14:09:56;6.75;;;3.17;;
51566;SDS011;37657;53.182;5.638;2023-04-15T14:12:22;6.80;;;3.28;;
51566;SDS011;37657;53.182;5.638;2023-04-15T14:14:48;10.18;;;3.15;;
51566;SDS011;37657;53.182;5.638;2023-04-15T14:17:13;9.77;;;3.45;;
51566;SDS011;37657;53.182;5.638;2023-04-15T14:19:39;10.35;;;3.67;;
51566;SDS011;37657;53.182;5.638;2023-04-15T14:22:04;8.65;;;4.32;;
51566;SDS011;37657;53.182;5.638;2023-04-15T14:24:30;7.00;;;2.95;;
51566;SDS011;37657;53.182;5.638;2023-04-15T14:26:56;6.15;;;2.67;;
51566;SDS011;37657;53.182;5.638;2023-04-15T14:29:22;7.68;;;3.10;;
51566;SDS011;37657;53.182;5.638;2023-04-15T14:31:48;10.10;;;4.50;;
51566;SDS011;37657;53.182;5.638;2023-04-15T14:34:14;6.43;;;2.88;;
51566;SDS011;37657;53.182;5.638;2023-04-15T14:36:40;9.68;;;3.83;;
51566;SDS011;37657;53.182;5.638;2023-04-15T14:39:06;8.70;;;4.28;;
51566;SDS011;37657;53.182;5.638;2023-04-15T14:41:32;4.45;;;2.15;;
51566;SDS011;37657;53.182;5.638;2023-04-15T14:43:57;3.58;;;1.85;;